Aérodrome :
LOGIN :

S'inscrire | Disclaimer

   EN    FR    IT 

 










Légende :    VFR   VFR Marginal   IFR   IFR Intensif   IFR Très Intensif
Visi : 
Plafond : 
>= 8 km
>= 3000ft
5 à 8 km
1000 à 3000 ft
1500m à 5 km
500 à 1000 ft
800 à 1500m
200 à 500 ft
< 800m
< 200 ft
Symboles :   Orages  Brouillard  Fortes neiges  Fortes précipitations  Vent > 20 kt
SIGMETs :   Divers  Orages  Givrage  Turbulence  Onde Orograph.  Cendres Volcan.







- Altitude de l'aérodrome : 160 ft
- Code IATA : FMO


EDDG - Münster Osnabrück Int.

DERNIER METAR :
  • 222150Z VRB02KT CAVOK 07/M00 Q1015 NOSIG

METARs EXPIRÉS :
  • 222120Z VRB01KT CAVOK 08/M01 Q1015 NOSIG
  • 222050Z 10003KT 010V180 CAVOK 08/M02 Q1015 NOSIG
  • 222020Z 09003KT 040V200 CAVOK 08/M02 Q1015 NOSIG
  • 221950Z 08003KT 340V150 CAVOK 09/M02 Q1015 NOSIG
  • 221920Z 07003KT 010V110 CAVOK 09/M02 Q1014 NOSIG

TAF TAF EDDG
Valide du 22 à 18h jusqu'au 23 à 18h UTC


221700Z 2218/2318 13005KT 9999 FEW040
BECMG 2220/2223 07005KT
TEMPO 2309/2316 07010KT
Pas de NOTAMs connus pour ce terrain.



MET'MAP, la Météo Aéronautique d'un coup d'oeil ! - Copyright ORBIFLY Décembre 2007 - Disclaimer

ORBIFLY MET'MAP TEAM :

Programmation & Développement : Alexandra Zaïnal
Conception & Développement : Baudouin d'Aumeries
Co-Programmation & Développement : Marc-Olivier Méhu
Soutien technique & logistique : Manuel Goepfert

Contact : metmap@orbifly.com




SOURCES & CREDITS :

   NOAA